Time;durP1;ratioP1;P1;durP2;ratioP2;P2;SDS_P1;SDS_P2;PMS_P1;PMS_P2;Temp;Humidity;BMP_temperature;BMP_pressure;BME280_temperature;BME280_humidity;BME280_pressure;Samples;Min_cycle;Max_cycle;Signal;HPM_P1;HPM_P2
2022/02/17 00:02:14;;;;;;;31.38;20.55;;;;;;;0.71;77.63;98886.63;5066714;28;20032;-63
2022/02/17 00:04:40;;;;;;;30.70;19.73;;;;;;;0.65;77.65;98887.47;5066396;28;20075;-63
2022/02/17 00:07:06;;;;;;;32.60;20.67;;;;;;;0.70;77.21;98890.06;5066102;28;20120;-62
2022/02/17 00:09:31;;;;;;;30.33;18.95;;;;;;;0.47;78.80;98880.59;5064347;28;20036;-62
2022/02/17 00:11:57;;;;;;;31.98;20.02;;;;;;;0.44;78.82;98887.34;5060045;28;20029;-63
2022/02/17 00:14:23;;;;;;;32.00;20.20;;;;;;;0.57;78.88;98878.06;5066179;28;20035;-63
2022/02/17 00:16:52;;;;;;;29.80;20.85;;;;;;;0.54;78.15;98871.25;5066218;28;20256;-63
2022/02/17 00:19:19;;;;;;;31.83;19.63;;;;;;;0.63;78.69;98866.22;5066162;28;20060;-63
2022/02/17 00:21:45;;;;;;;29.40;19.55;;;;;;;0.76;78.15;98867.16;5066262;28;20024;-63
2022/02/17 00:24:11;;;;;;;33.20;20.27;;;;;;;0.72;77.95;98865.41;5066235;28;20043;-63
2022/02/17 00:26:36;;;;;;;33.28;20.63;;;;;;;0.50;79.15;98857.69;5066023;28;20028;-63
2022/02/17 00:29:02;;;;;;;35.13;21.33;;;;;;;0.62;78.45;98848.41;5065729;28;20043;-62
2022/02/17 00:31:27;;;;;;;32.45;20.88;;;;;;;0.73;78.59;98856.06;5065529;28;20032;-63
2022/02/17 00:33:53;;;;;;;29.85;19.63;;;;;;;0.45;79.47;98844.03;5065879;28;20326;-63
2022/02/17 00:36:19;;;;;;;33.45;22.02;;;;;;;0.56;78.65;98833.94;5064339;28;20166;-63
2022/02/17 00:38:45;;;;;;;30.92;20.98;;;;;;;0.56;78.99;98826.28;5065741;28;20121;-63
2022/02/17 00:41:11;;;;;;;35.60;21.45;;;;;;;0.36;79.89;98812.59;5065316;28;20237;-64
2022/02/17 00:43:37;;;;;;;34.25;21.40;;;;;;;0.43;79.42;98796.50;5065256;28;20021;-63
2022/02/17 00:46:02;;;;;;;33.42;21.15;;;;;;;0.56;79.50;98794.88;5065312;28;20062;-64
2022/02/17 00:48:29;;;;;;;32.58;21.15;;;;;;;0.45;80.05;98785.47;5063973;28;20080;-63
2022/02/17 00:50:54;;;;;;;33.42;20.63;;;;;;;0.29;80.67;98781.16;5082684;28;20025;-63
2022/02/17 00:53:20;;;;;;;35.90;21.13;;;;;;;0.26;80.98;98768.41;5065114;28;20203;-63
2022/02/17 00:55:45;;;;;;;35.53;22.10;;;;;;;0.46;80.13;98755.78;5065032;28;20222;-62
2022/02/17 00:58:11;;;;;;;33.20;21.20;;;;;;;0.31;80.63;98757.41;5064086;28;20253;-63
2022/02/17 01:00:36;;;;;;;35.13;23.15;;;;;;;0.60;79.90;98749.03;5064851;28;20326;-63
2022/02/17 01:03:02;;;;;;;36.83;22.40;;;;;;;0.54;79.93;98743.06;5065018;28;20079;-62
2022/02/17 01:05:28;;;;;;;39.53;22.38;;;;;;;0.57;79.70;98731.19;5064068;28;20244;-63
2022/02/17 01:07:54;;;;;;;39.08;23.50;;;;;;;0.63;79.92;98728.66;5062781;28;20037;-63
2022/02/17 01:10:20;;;;;;;39.95;23.45;;;;;;;0.46;79.73;98722.66;5065368;28;20032;-63
2022/02/17 01:12:46;;;;;;;39.60;23.70;;;;;;;0.44;80.26;98716.69;5065149;28;20092;-64
2022/02/17 01:15:11;;;;;;;40.17;24.08;;;;;;;0.40;80.53;98715.84;5065357;28;20086;-63
2022/02/17 01:17:37;;;;;;;40.78;25.77;;;;;;;0.41;80.76;98712.44;5065133;28;20079;-63
2022/02/17 01:20:05;;;;;;;44.53;26.00;;;;;;;0.14;80.82;98637.69;5064763;28;20027;-64
2022/02/17 01:22:31;;;;;;;44.78;25.08;;;;;;;0.55;80.41;98696.38;5063305;28;20383;-63
2022/02/17 01:24:56;;;;;;;41.55;24.10;;;;;;;0.55;80.09;98693.81;5064771;28;20345;-63
2022/02/17 01:27:22;;;;;;;39.92;24.83;;;;;;;0.47;80.91;98689.56;5064655;28;20041;-62
2022/02/17 01:29:48;;;;;;;38.88;23.80;;;;;;;0.40;80.41;98680.19;5063682;28;20097;-64
2022/02/17 01:32:14;;;;;;;42.65;25.05;;;;;;;0.58;80.58;98693.81;5064855;28;20195;-63
2022/02/17 01:34:40;;;;;;;40.25;23.65;;;;;;;0.46;80.06;98685.31;5064817;28;20012;-63
2022/02/17 01:37:06;;;;;;;39.13;24.33;;;;;;;0.54;80.29;98682.75;5064917;28;20035;-64
2022/02/17 01:39:32;;;;;;;40.72;24.17;;;;;;;0.24;81.02;98675.88;5064828;28;20025;-64
2022/02/17 01:41:58;;;;;;;39.35;23.25;;;;;;;0.50;81.06;98678.53;5064792;28;20053;-65
2022/02/17 01:44:25;;;;;;;36.78;22.42;;;;;;;0.15;81.46;98656.34;5064457;28;20328;-62
2022/02/17 01:46:51;;;;;;;37.28;24.10;;;;;;;0.39;80.60;98659.81;5064487;28;20040;-62
2022/02/17 01:49:17;;;;;;;38.95;24.75;;;;;;;0.43;80.70;98649.66;5064222;28;20214;-62
2022/02/17 01:51:42;;;;;;;43.60;23.92;;;;;;;0.50;79.66;98643.72;5063363;28;20078;-62
2022/02/17 01:54:09;;;;;;;38.17;23.48;;;;;;;0.51;80.72;98642.00;5063486;28;20070;-62
2022/02/17 01:56:38;;;;;;;40.65;23.67;;;;;;;0.00;80.20;98573.16;5061969;28;20021;-62
2022/02/17 01:59:06;;;;;;;42.63;25.00;;;;;;;0.14;80.32;98561.31;5063352;28;20059;-63
2022/02/17 02:01:33;;;;;;;36.88;22.88;;;;;;;0.61;79.65;98619.94;5063234;28;20380;-62
2022/02/17 02:03:59;;;;;;;41.70;24.95;;;;;;;0.46;79.98;98614.00;5061253;28;20032;-62
2022/02/17 02:06:25;;;;;;;38.28;24.25;;;;;;;0.62;79.54;98608.91;5062097;28;20029;-62
2022/02/17 02:08:51;;;;;;;39.75;23.70;;;;;;;0.60;79.74;98597.88;5063310;28;20074;-62
2022/02/17 02:11:17;;;;;;;39.85;24.83;;;;;;;0.32;79.83;98560.47;5063084;28;20040;-61
2022/02/17 02:13:42;;;;;;;40.72;25.08;;;;;;;0.14;81.12;98588.44;5063888;28;20032;-62
2022/02/17 02:16:08;;;;;;;38.78;24.33;;;;;;;0.25;80.84;98574.06;5063320;28;20320;-65
2022/02/17 02:18:34;;;;;;;40.35;23.38;;;;;;;0.26;80.91;98564.72;5062848;28;20033;-62
2022/02/17 02:20:59;;;;;;;40.05;25.00;;;;;;;0.48;80.53;98574.06;5063683;28;20314;-61
2022/02/17 02:23:25;;;;;;;40.20;24.42;;;;;;;0.51;80.37;98569.00;5062371;28;20062;-63
2022/02/17 02:25:52;;;;;;;38.30;24.98;;;;;;;0.43;80.09;98557.09;5063328;28;20093;-62
2022/02/17 02:28:24;;;;;;;38.97;24.42;;;;;;;0.56;80.28;98597.03;5060230;28;20049;-62
2022/02/17 02:30:50;;;;;;;;;;;;;;;0.41;79.81;98584.25;5062787;28;20029;-62
2022/02/17 02:33:17;;;;;;;41.30;24.63;;;;;;;0.31;80.92;98586.81;5062014;28;20027;-62
2022/02/17 02:35:43;;;;;;;41.05;25.55;;;;;;;0.36;80.47;98583.41;5063546;28;20047;-61
2022/02/17 02:38:10;;;;;;;39.65;24.17;;;;;;;0.51;79.98;98593.63;5063548;28;20043;-62
2022/02/17 02:40:36;;;;;;;40.60;24.75;;;;;;;0.58;79.72;98579.19;5063246;28;20039;-61
2022/02/17 02:43:03;;;;;;;42.17;24.23;;;;;;;0.43;79.61;98580.00;5063314;28;20033;-62
2022/02/17 02:45:28;;;;;;;39.50;24.15;;;;;;;0.16;81.34;98587.63;5067112;28;20265;-62
2022/02/17 02:47:55;;;;;;;39.03;24.85;;;;;;;0.36;80.27;98579.19;5061714;28;20097;-62
2022/02/17 02:50:21;;;;;;;39.90;23.23;;;;;;;0.19;81.46;98584.22;5062706;28;20033;-62
2022/02/17 02:52:46;;;;;;;39.30;23.90;;;;;;;0.27;80.85;98574.06;5063297;28;20032;-62
2022/02/17 02:55:12;;;;;;;38.60;23.65;;;;;;;0.22;81.25;98574.06;5062002;28;20052;-61
2022/02/17 02:57:38;;;;;;;36.70;22.88;;;;;;;0.16;80.50;98581.69;5062684;28;20070;-61
2022/02/17 03:00:05;;;;;;;38.75;24.35;;;;;;;0.08;81.86;98584.19;5055135;28;20059;-63
2022/02/17 03:02:30;;;;;;;42.22;25.45;;;;;;;0.26;82.36;98568.13;5062896;28;20028;-63
2022/02/17 03:04:56;;;;;;;42.28;25.77;;;;;;;0.13;82.19;98559.59;5063111;28;20033;-61
2022/02/17 03:07:21;;;;;;;42.92;25.25;;;;;;;0.32;81.11;98560.47;5059999;28;20040;-62
2022/02/17 03:09:47;;;;;;;42.08;25.10;;;;;;;0.34;81.88;98550.28;5053598;28;20032;-62
2022/02/17 03:12:12;;;;;;;38.35;22.88;;;;;;;0.25;81.59;98540.94;5063010;28;20206;-62
2022/02/17 03:14:40;;;;;;;35.22;22.35;;;;;;;0.28;82.02;98546.03;5063068;28;20335;-62
2022/02/17 03:17:06;;;;;;;40.95;24.40;;;;;;;0.51;81.75;98542.66;5061322;28;20194;-62
2022/02/17 03:19:31;;;;;;;40.03;25.02;;;;;;;0.54;80.84;98546.91;5062500;28;20054;-62
2022/02/17 03:21:57;;;;;;;35.45;23.10;;;;;;;0.57;80.84;98536.72;5062561;28;20095;-61
2022/02/17 03:24:22;;;;;;;34.95;21.23;;;;;;;0.38;81.53;98534.19;5062017;28;20314;-61
2022/02/17 03:26:48;;;;;;;35.78;22.35;;;;;;;0.15;82.62;98526.53;5061954;28;20050;-61
2022/02/17 03:29:13;;;;;;;34.55;22.33;;;;;;;0.12;82.96;98465.44;5061704;28;20209;-60
2022/02/17 03:31:39;;;;;;;37.20;23.25;;;;;;;0.23;83.29;98495.97;5062543;28;20040;-61
2022/02/17 03:34:05;;;;;;;37.40;23.50;;;;;;;0.28;83.50;98491.75;5062115;28;20033;-63
2022/02/17 03:36:30;;;;;;;40.40;24.15;;;;;;;0.29;83.57;98491.75;5062308;28;20021;-63
2022/02/17 03:38:57;;;;;;;35.83;22.27;;;;;;;0.27;83.83;98477.31;5062475;28;20039;-62
2022/02/17 03:41:23;;;;;;;36.22;22.17;;;;;;;0.39;83.15;98469.66;5062386;28;20031;-63
2022/02/17 03:43:49;;;;;;;36.13;21.65;;;;;;;0.37;83.58;98478.16;5062388;28;21061;-62
2022/02/17 03:46:14;;;;;;;36.67;22.80;;;;;;;0.27;83.32;98472.22;5061537;28;20056;-62
2022/02/17 03:48:40;;;;;;;36.85;22.50;;;;;;;0.34;82.95;98469.69;5061768;28;20021;-63
2022/02/17 03:51:06;;;;;;;34.45;20.90;;;;;;;0.26;83.73;98451.00;5062153;28;20104;-60
2022/02/17 03:53:32;;;;;;;35.10;21.30;;;;;;;0.32;83.31;98451.00;5062054;28;20092;-61
2022/02/17 03:55:57;;;;;;;33.63;20.85;;;;;;;0.31;83.82;98451.00;5062261;28;20021;-61
2022/02/17 04:01:08;;;;;;;35.42;20.58;;;;;;;0.28;84.92;98433.19;5062284;28;20028;-61
2022/02/17 04:03:33;;;;;;;34.55;20.70;;;;;;;0.32;83.61;98423.00;5061279;28;20037;-61
2022/02/17 04:05:59;;;;;;;31.33;20.17;;;;;;;0.26;84.26;98420.47;5061685;28;20032;-61
2022/02/17 04:08:25;;;;;;;36.85;21.70;;;;;;;0.27;84.66;98423.84;5060923;28;20207;-61
2022/02/17 04:10:50;;;;;;;32.03;19.95;;;;;;;0.21;84.40;98411.13;5062173;28;20100;-61
2022/02/17 04:13:16;;;;;;;33.83;19.17;;;;;;;0.28;84.41;98425.53;5062262;28;20032;-61
2022/02/17 04:15:42;;;;;;;31.33;19.38;;;;;;;0.28;84.61;98421.28;5061854;28;20031;-62
2022/02/17 04:18:07;;;;;;;36.05;21.10;;;;;;;0.28;85.16;98423.00;5061635;28;20029;-60
2022/02/17 04:20:33;;;;;;;33.35;20.73;;;;;;;0.38;84.91;98413.66;5061856;28;20040;-62
2022/02/17 04:22:58;;;;;;;35.00;20.83;;;;;;;0.43;84.99;98422.13;5061632;28;20047;-62
2022/02/17 04:25:24;;;;;;;31.98;18.90;;;;;;;0.48;84.21;98405.97;5060493;28;20088;-61
2022/02/17 04:27:49;;;;;;;37.28;22.77;;;;;;;0.56;84.06;98388.16;5061721;28;20021;-61
2022/02/17 04:30:15;;;;;;;36.83;21.63;;;;;;;0.68;83.45;98379.63;5061693;28;20021;-61
2022/02/17 04:32:40;;;;;;;33.10;20.45;;;;;;;0.77;83.25;98371.97;5061680;28;20093;-61
2022/02/17 04:35:07;;;;;;;31.45;19.63;;;;;;;0.74;83.07;98360.94;5061430;28;20024;-61
2022/02/17 04:37:33;;;;;;;33.38;19.33;;;;;;;0.50;83.69;98358.44;5039119;28;20087;-60
2022/02/17 04:40:00;;;;;;;29.52;18.10;;;;;;;0.46;84.32;98343.19;5061366;28;20032;-61
2022/02/17 04:42:27;;;;;;;32.65;18.50;;;;;;;0.61;84.49;98353.31;5065202;28;20039;-61
2022/02/17 04:44:53;;;;;;;28.58;18.23;;;;;;;0.65;83.60;98355.00;5065243;28;20051;-62
2022/02/17 04:47:19;;;;;;;27.20;17.88;;;;;;;0.69;83.69;98335.47;5044819;28;20052;-61
2022/02/17 04:49:45;;;;;;;29.42;17.92;;;;;;;0.48;83.87;98332.13;5065140;28;20309;-61
2022/02/17 04:52:11;;;;;;;27.63;17.60;;;;;;;0.54;84.12;98344.00;5065093;28;20020;-63
2022/02/17 04:54:37;;;;;;;25.42;17.55;;;;;;;0.60;84.13;98330.41;5065111;28;20047;-63
2022/02/17 04:57:06;;;;;;;31.00;17.23;;;;;;;0.64;83.66;98327.84;5065349;28;20096;-61
2022/02/17 04:59:34;;;;;;;28.00;17.17;;;;;;;0.83;82.95;98337.97;5064977;28;20020;-62
2022/02/17 05:02:00;;;;;;;27.83;16.67;;;;;;;0.74;83.17;98330.34;5064876;28;20096;-62
2022/02/17 05:04:26;;;;;;;27.08;16.65;;;;;;;0.90;82.14;98326.03;5065010;28;20029;-61
2022/02/17 05:06:51;;;;;;;27.65;17.38;;;;;;;0.92;82.53;98309.88;5065074;28;20048;-61
2022/02/17 05:09:17;;;;;;;26.95;16.73;;;;;;;0.93;82.93;98305.66;5063838;28;20332;-62
2022/02/17 05:11:42;;;;;;;24.58;15.85;;;;;;;0.81;82.20;98281.94;5064854;28;20035;-60
2022/02/17 05:14:08;;;;;;;30.75;16.77;;;;;;;0.71;83.34;98279.41;5062903;28;20027;-62
2022/02/17 05:16:34;;;;;;;23.45;15.98;;;;;;;0.75;82.51;98270.91;5064485;28;20040;-61
2022/02/17 05:18:59;;;;;;;25.13;15.70;;;;;;;0.79;82.86;98273.41;5064485;28;20028;-62
2022/02/17 05:21:25;;;;;;;28.60;17.88;;;;;;;0.85;82.28;98250.44;5064697;28;20032;-62
2022/02/17 05:23:51;;;;;;;23.55;14.55;;;;;;;0.87;82.35;98263.22;5064768;28;20041;-62
2022/02/17 05:26:17;;;;;;;22.63;15.27;;;;;;;0.94;81.72;98266.53;5064608;28;20318;-61
2022/02/17 05:28:42;;;;;;;23.55;15.23;;;;;;;0.96;81.68;98275.88;5063927;28;20033;-61
2022/02/17 05:31:10;;;;;;;24.13;13.45;;;;;;;0.76;82.50;98283.63;5063979;28;20328;-61
2022/02/17 05:33:35;;;;;;;22.38;15.25;;;;;;;0.79;82.15;98265.78;5063580;28;20059;-61
2022/02/17 05:36:01;;;;;;;24.25;14.65;;;;;;;0.87;82.02;98278.50;5063579;28;20033;-61
2022/02/17 05:38:26;;;;;;;21.60;14.45;;;;;;;0.88;81.57;98271.69;5062030;28;20025;-61
2022/02/17 05:40:52;;;;;;;20.52;13.93;;;;;;;0.99;81.21;98275.03;5061999;28;20032;-60
2022/02/17 05:43:18;;;;;;;21.08;13.57;;;;;;;1.18;80.94;98275.75;5062705;28;20018;-60
2022/02/17 05:45:43;;;;;;;24.13;15.05;;;;;;;1.31;80.36;98269.72;5062609;28;20262;-61
2022/02/17 05:48:09;;;;;;;20.15;12.73;;;;;;;1.09;79.98;98263.91;5062547;28;20028;-61
2022/02/17 05:50:34;;;;;;;22.92;13.82;;;;;;;1.13;80.53;98265.59;5062797;28;20050;-62
2022/02/17 05:53:00;;;;;;;20.45;13.48;;;;;;;1.07;80.77;98252.88;5062701;28;20016;-61
2022/02/17 05:55:26;;;;;;;23.40;14.18;;;;;;;0.79;81.62;98232.66;5064080;28;20095;-61
2022/02/17 05:57:52;;;;;;;19.52;13.30;;;;;;;1.05;80.65;98239.28;5063787;28;20033;-59
2022/02/17 06:00:19;;;;;;;23.60;14.20;;;;;;;1.18;80.63;98227.31;5064095;28;20090;-60
2022/02/17 06:02:45;;;;;;;20.92;13.35;;;;;;;1.09;80.13;98212.94;5063795;28;20258;-61
2022/02/17 06:05:12;;;;;;;20.70;12.85;;;;;;;0.96;80.57;98189.22;5064303;28;20052;-61
2022/02/17 06:07:38;;;;;;;19.23;12.93;;;;;;;1.03;80.61;98208.72;5060144;28;20041;-60
2022/02/17 06:10:06;;;;;;;18.88;11.82;;;;;;;0.83;80.27;98188.47;5063781;28;20055;-62
2022/02/17 06:12:31;;;;;;;16.30;11.80;;;;;;;1.12;80.04;98196.75;5064213;28;20040;-61
2022/02/17 06:14:58;;;;;;;18.10;11.85;;;;;;;1.18;79.80;98189.94;5063910;28;20021;-62
2022/02/17 06:17:24;;;;;;;16.75;11.73;;;;;;;1.05;79.93;98192.56;5062908;28;20408;-61
2022/02/17 06:19:51;;;;;;;16.35;10.88;;;;;;;1.06;80.20;98195.09;5063921;28;20063;-61
2022/02/17 06:22:16;;;;;;;15.00;10.80;;;;;;;1.16;79.72;98206.09;5063783;28;20390;-61
2022/02/17 06:24:42;;;;;;;16.30;10.88;;;;;;;1.07;79.67;98212.09;5063848;28;20064;-63
2022/02/17 06:27:08;;;;;;;18.88;11.38;;;;;;;1.17;79.74;98187.38;5063607;28;20028;-62
2022/02/17 06:29:33;;;;;;;17.50;10.98;;;;;;;1.30;79.41;98170.28;5063675;28;20032;-62
2022/02/17 06:31:59;;;;;;;15.55;10.88;;;;;;;1.28;78.93;98172.81;5063679;28;20021;-62
2022/02/17 06:34:24;;;;;;;17.40;10.70;;;;;;;1.39;79.44;98172.72;5062944;28;20289;-61
2022/02/17 06:36:50;;;;;;;16.05;10.00;;;;;;;1.30;79.15;98157.53;5063724;28;20048;-62
2022/02/17 06:39:16;;;;;;;16.52;10.20;;;;;;;1.22;79.33;98154.19;5063601;28;20077;-60
2022/02/17 06:41:43;;;;;;;14.93;9.85;;;;;;;0.93;79.42;98099.22;5062682;28;20198;-62
2022/02/17 06:44:10;;;;;;;15.13;10.43;;;;;;;1.28;79.32;98149.03;5063508;28;20186;-60
2022/02/17 06:46:36;;;;;;;16.92;10.55;;;;;;;1.27;79.52;98139.69;5063181;28;20028;-61
2022/02/17 06:49:02;;;;;;;13.25;9.98;;;;;;;1.31;79.45;98144.75;5063453;28;20028;-61
2022/02/17 06:51:27;;;;;;;15.07;10.60;;;;;;;1.34;79.30;98134.53;5063302;28;20086;-61
2022/02/17 06:53:53;;;;;;;14.63;10.80;;;;;;;1.41;78.67;98127.69;5063294;28;20021;-61
2022/02/17 06:56:20;;;;;;;14.25;10.20;;;;;;;1.29;79.69;98133.72;5063355;28;20333;-61
2022/02/17 06:58:46;;;;;;;19.23;11.40;;;;;;;1.46;79.34;98128.44;5063060;28;20031;-59
2022/02/17 07:01:12;;;;;;;16.95;10.73;;;;;;;1.61;79.00;98116.41;5063027;28;20025;-61
2022/02/17 07:03:38;;;;;;;16.13;10.95;;;;;;;1.36;79.28;98114.09;5061574;28;20037;-59
2022/02/17 07:06:04;;;;;;;15.13;10.70;;;;;;;1.37;79.30;98115.81;5055505;28;20020;-60
2022/02/17 07:08:29;;;;;;;16.17;11.13;;;;;;;1.53;79.05;98111.38;5062278;28;20051;-61
2022/02/17 07:10:56;;;;;;;15.63;10.90;;;;;;;1.41;79.08;98101.31;5062644;28;20033;-61
2022/02/17 07:13:23;;;;;;;15.40;10.90;;;;;;;1.53;78.86;98086.72;5062439;28;20128;-60
2022/02/17 07:15:50;;;;;;;18.08;11.80;;;;;;;1.49;79.21;98076.56;5062621;28;20084;-60
2022/02/17 07:18:17;;;;;;;15.45;10.82;;;;;;;1.45;79.47;98064.72;5062400;28;20032;-60
2022/02/17 07:20:46;;;;;;;17.00;11.73;;;;;;;1.63;79.29;98089.19;5062446;28;20083;-62
2022/02/17 07:23:14;;;;;;;16.58;10.93;;;;;;;1.62;79.01;98060.25;5062117;28;20055;-60
2022/02/17 07:25:43;;;;;;;14.85;10.77;;;;;;;1.64;79.26;98062.78;5062398;28;20082;-61
2022/02/17 07:28:09;;;;;;;18.92;11.45;;;;;;;1.57;79.44;98068.81;5062677;28;20104;-62
2022/02/17 07:30:36;;;;;;;16.67;11.40;;;;;;;1.57;79.51;98068.81;5062028;28;20028;-60
2022/02/17 07:33:02;;;;;;;16.25;11.18;;;;;;;1.48;79.59;98052.78;5061412;28;20033;-61
2022/02/17 07:35:30;;;;;;;17.08;11.50;;;;;;;1.67;79.51;98050.84;5062425;28;20028;-61
2022/02/17 07:37:57;;;;;;;17.58;11.80;;;;;;;1.69;79.03;98027.84;5045222;28;20268;-61
2022/02/17 07:40:24;;;;;;;17.60;11.77;;;;;;;1.65;79.75;98021.09;5061146;28;20053;-63
2022/02/17 07:42:49;;;;;;;17.02;11.05;;;;;;;1.52;79.57;97995.72;5062023;28;20341;-61
2022/02/17 07:45:15;;;;;;;18.95;9.50;;;;;;;1.49;80.01;98000.88;5062316;28;20056;-61
2022/02/17 07:47:45;;;;;;;17.88;11.20;;;;;;;1.73;79.43;98007.38;5062019;28;20243;-60
2022/02/17 07:50:19;;;;;;;15.80;11.48;;;;;;;1.47;79.00;97948.19;5062237;28;20025;-59
2022/02/17 07:52:45;;;;;;;14.68;10.95;;;;;;;1.93;79.12;98013.94;5062188;28;20021;-59
2022/02/17 07:55:13;;;;;;;16.33;11.05;;;;;;;1.69;79.23;97987.88;5061969;28;20029;-60
2022/02/17 07:57:39;;;;;;;14.07;10.15;;;;;;;1.70;79.37;98021.91;5062262;28;20025;-60
2022/02/17 08:00:07;;;;;;;16.48;10.93;;;;;;;1.67;80.18;97999.81;5061940;28;20048;-61
2022/02/17 08:02:33;;;;;;;16.92;10.85;;;;;;;1.72;79.64;97990.41;5060712;28;20029;-61
2022/02/17 08:04:59;;;;;;;18.52;11.43;;;;;;;1.79;79.99;97997.97;5062207;28;20029;-61
2022/02/17 08:07:25;;;;;;;17.33;11.63;;;;;;;1.79;79.80;97987.75;5061659;28;20051;-60
2022/02/17 08:09:53;;;;;;;18.15;11.23;;;;;;;1.79;79.94;97992.84;5062172;28;20100;-60
2022/02/17 08:12:19;;;;;;;19.35;12.10;;;;;;;1.97;79.72;97984.94;5060934;28;20049;-62
2022/02/17 08:14:45;;;;;;;18.17;10.93;;;;;;;1.82;80.20;97987.72;5061753;28;20040;-62
2022/02/17 08:17:10;;;;;;;18.27;11.65;;;;;;;1.85;80.39;97988.53;5062721;28;20218;-59
2022/02/17 08:19:36;;;;;;;16.85;11.23;;;;;;;1.81;80.29;97974.13;5065130;28;20024;-61
2022/02/17 08:22:03;;;;;;;20.00;11.70;;;;;;;2.01;80.29;97975.50;5064560;28;20045;-60
2022/02/17 08:24:29;;;;;;;19.92;12.38;;;;;;;1.90;80.65;97970.59;5066225;28;20088;-61
2022/02/17 08:26:56;;;;;;;17.42;11.60;;;;;;;2.07;80.61;97980.53;5066066;28;20037;-61
2022/02/17 08:29:23;;;;;;;18.48;12.50;;;;;;;2.17;80.37;97976.97;5065700;28;20028;-62
2022/02/17 08:31:49;;;;;;;18.75;11.88;;;;;;;2.07;80.06;97962.69;5065994;28;20092;-61
2022/02/17 08:34:18;;;;;;;18.20;11.75;;;;;;;2.12;80.10;97965.97;5066074;28;20384;-60
2022/02/17 08:36:43;;;;;;;19.92;13.00;;;;;;;2.12;80.64;97965.16;5065309;28;20071;-60
2022/02/17 08:39:09;;;;;;;16.90;11.15;;;;;;;2.04;80.79;97949.97;5065223;28;20020;-61
2022/02/17 08:41:36;;;;;;;18.88;12.10;;;;;;;2.19;80.62;97975.22;5065334;28;20028;-61
2022/02/17 08:44:02;;;;;;;19.08;12.60;;;;;;;2.14;80.68;97958.28;5064228;28;20021;-63
2022/02/17 08:46:27;;;;;;;21.45;12.80;;;;;;;2.29;80.11;97962.34;5065580;28;20049;-61
2022/02/17 08:48:53;;;;;;;23.42;13.25;;;;;;;2.17;80.91;97963.38;5065437;28;20210;-61
2022/02/17 08:51:22;;;;;;;20.10;12.88;;;;;;;2.29;80.60;97942.72;5064136;28;20041;-60
2022/02/17 08:53:48;;;;;;;20.33;13.07;;;;;;;2.44;80.24;97933.97;5065123;28;20217;-59
2022/02/17 08:56:13;;;;;;;19.38;13.32;;;;;;;2.42;80.22;97922.94;5065120;28;20025;-61
2022/02/17 08:58:39;;;;;;;18.65;13.10;;;;;;;2.35;80.44;97901.78;5064944;28;20074;-61
2022/02/17 09:01:05;;;;;;;19.98;12.88;;;;;;;2.64;79.72;97927.69;5063792;28;20297;-62
2022/02/17 09:03:30;;;;;;;21.40;12.80;;;;;;;2.59;80.00;97943.09;5064890;28;20103;-61
2022/02/17 09:05:56;;;;;;;19.20;12.95;;;;;;;2.56;79.99;97936.31;5064986;28;20044;-62
2022/02/17 09:08:21;;;;;;;20.83;13.35;;;;;;;2.52;80.14;97918.50;5061273;28;20039;-60
2022/02/17 09:10:47;;;;;;;23.80;14.38;;;;;;;2.57;80.11;97914.16;5064974;28;20082;-60
2022/02/17 09:13:14;;;;;;;19.63;13.23;;;;;;;2.58;80.40;97909.03;5065004;28;20031;-62
2022/02/17 09:15:40;;;;;;;21.35;14.05;;;;;;;2.71;79.87;97896.88;5064972;28;20029;-62
2022/02/17 09:18:05;;;;;;;19.70;12.52;;;;;;;2.73;79.93;97886.63;5064432;28;20029;-64
2022/02/17 09:20:32;;;;;;;18.67;13.23;;;;;;;2.76;79.94;97887.41;5064621;28;20032;-62
2022/02/17 09:22:58;;;;;;;17.77;12.48;;;;;;;2.86;80.04;97877.00;5064448;28;20029;-64
2022/02/17 09:25:24;;;;;;;19.10;13.15;;;;;;;2.79;79.96;97863.47;5064466;28;20028;-63
2022/02/17 09:27:50;;;;;;;20.17;13.10;;;;;;;2.92;79.72;97871.75;5062934;28;20036;-60
2022/02/17 09:30:16;;;;;;;20.08;12.75;;;;;;;2.97;79.94;97856.34;5064376;28;20028;-61
2022/02/17 09:32:41;;;;;;;20.15;12.82;;;;;;;2.87;79.97;97859.06;5064756;28;20040;-62
2022/02/17 09:35:11;;;;;;;17.88;12.68;;;;;;;3.03;79.37;97843.41;5064861;28;20032;-62
2022/02/17 09:37:39;;;;;;;19.83;12.70;;;;;;;3.06;79.35;97845.91;5047185;28;20212;-61
2022/02/17 09:40:06;;;;;;;20.30;13.02;;;;;;;3.03;79.45;97831.47;5064665;28;20025;-62
2022/02/17 09:42:37;;;;;;;17.25;12.13;;;;;;;3.02;79.71;97832.34;5064392;28;20036;-63
2022/02/17 09:45:08;;;;;;;18.70;13.13;;;;;;;3.08;79.39;97826.28;5064647;28;20028;-61
2022/02/17 09:47:35;;;;;;;18.25;12.63;;;;;;;3.19;79.73;97821.75;5064491;28;20322;-63
2022/02/17 09:50:00;;;;;;;17.52;12.77;;;;;;;3.11;79.81;97806.56;5064395;28;20256;-65
2022/02/17 09:52:27;;;;;;;17.38;11.80;;;;;;;3.08;79.47;97785.34;5063442;28;20037;-60
2022/02/17 09:54:54;;;;;;;19.35;12.52;;;;;;;3.20;79.84;97776.56;5064341;28;20021;-61
2022/02/17 09:57:23;;;;;;;20.83;13.27;;;;;;;3.20;79.41;97791.91;5063981;28;20217;-61
2022/02/17 09:59:49;;;;;;;18.15;12.75;;;;;;;3.17;79.25;97797.09;5062865;28;20044;-61
2022/02/17 10:02:22;;;;;;;20.45;13.75;;;;;;;3.21;79.57;97779.06;5062047;28;20314;-62
2022/02/17 10:04:53;;;;;;;20.05;13.68;;;;;;;3.37;79.04;97776.16;5064919;28;20123;-61
2022/02/17 10:07:37;;;;;;;18.77;13.38;;;;;;;3.04;79.07;97737.72;5061170;28;20096;-62
2022/02/17 10:10:08;;;;;;;17.80;12.95;;;;;;;3.52;78.22;97786.03;5062834;28;20116;-61
2022/02/17 10:13:17;;;;;;;18.10;13.23;;;;;;;3.59;77.79;97773.91;5073426;28;20041;-63
2022/02/17 10:15:42;;;;;;;20.20;13.52;;;;;;;3.38;78.17;97739.47;5026660;28;20530;-60
2022/02/17 10:18:14;;;;;;;19.55;12.95;;;;;;;3.58;78.32;97750.06;5057493;28;20356;-60
2022/02/17 10:21:07;;;;;;;21.25;14.20;;;;;;;3.62;77.31;97761.91;5063661;28;20035;-61
2022/02/17 10:23:45;;;;;;;20.52;13.45;;;;;;;3.60;77.84;97743.16;5060516;28;20075;-62
2022/02/17 10:26:11;;;;;;;18.67;13.32;;;;;;;3.68;77.67;97744.69;5062636;28;20327;-60
2022/02/17 10:28:41;;;;;;;19.98;13.65;;;;;;;3.75;77.47;97738.56;5063476;28;20048;-60
2022/02/17 10:31:08;;;;;;;21.58;12.57;;;;;;;3.77;77.42;97721.44;5063087;28;20073;-60
2022/02/17 10:33:40;;;;;;;19.30;13.60;;;;;;;3.42;77.07;97671.97;5063145;28;20367;-60
2022/02/17 10:36:06;;;;;;;21.98;13.38;;;;;;;3.73;77.54;97709.59;5063168;28;20028;-61
2022/02/17 10:38:32;;;;;;;20.13;13.40;;;;;;;3.78;76.75;97698.34;5062744;28;20067;-60
2022/02/17 10:40:57;;;;;;;18.73;13.40;;;;;;;3.69;77.54;97674.72;5063052;28;20170;-60
2022/02/17 10:43:28;;;;;;;20.83;13.82;;;;;;;3.64;76.53;97641.56;5061354;28;20028;-62
2022/02/17 10:45:54;;;;;;;18.73;12.90;;;;;;;3.88;76.32;97688.72;5062437;28;20044;-61
2022/02/17 10:48:27;;;;;;;19.45;13.15;;;;;;;3.74;76.25;97644.72;5063324;28;20032;-61
2022/02/17 10:51:15;;;;;;;19.95;10.52;;;;;;;3.64;77.67;97664.59;5063267;28;20233;-61
2022/02/17 10:53:45;;;;;;;22.75;12.95;;;;;;;3.85;76.94;97660.63;5063065;28;20025;-61
2022/02/17 10:56:15;;;;;;;28.40;12.25;;;;;;;3.90;76.47;97650.25;5062678;28;20025;-60
2022/02/17 10:58:48;;;;;;;18.35;12.68;;;;;;;3.48;76.22;97587.41;5060944;28;20049;-59
2022/02/17 11:01:15;;;;;;;21.63;13.88;;;;;;;3.62;76.44;97587.88;5063112;28;20333;-61
2022/02/17 11:03:42;;;;;;;18.48;12.40;;;;;;;3.92;75.84;97633.13;5063306;28;20072;-61
2022/02/17 11:06:13;;;;;;;21.83;13.85;;;;;;;3.50;76.43;97565.16;5062487;28;20074;-62
2022/02/17 11:08:40;;;;;;;20.60;13.43;;;;;;;4.00;75.50;97604.75;5058984;28;20084;-62
2022/02/17 11:11:07;;;;;;;20.35;13.45;;;;;;;4.12;76.07;97614.66;5062945;28;20036;-61
2022/02/17 11:13:33;;;;;;;21.25;13.13;;;;;;;4.09;75.31;97600.19;5060596;28;20075;-61
2022/02/17 11:16:03;;;;;;;22.30;14.75;;;;;;;3.67;75.57;97522.91;5062932;28;20048;-58
2022/02/17 11:18:30;;;;;;;21.73;14.73;;;;;;;4.14;75.59;97595.75;5062313;28;20099;-59
2022/02/17 11:20:57;;;;;;;21.92;14.38;;;;;;;4.10;75.90;97583.94;5061931;28;20079;-60
2022/02/17 11:23:31;;;;;;;22.35;14.70;;;;;;;4.11;75.25;97611.22;5061039;28;20221;-60
2022/02/17 11:25:58;;;;;;;22.20;14.98;;;;;;;4.13;74.92;97572.75;5061165;28;20043;-59
2022/02/17 11:28:35;;;;;;;22.17;14.15;;;;;;;3.95;75.67;97549.38;5061026;28;20021;-59